sensor_id;sensor_type;location;lat;lon;timestamp;P1;durP1;ratioP1;P2;durP2;ratioP2
64619;SDS011;51029;51.058;13.826;2023-06-22T00:01:49;10.37;;;9.40;;
64619;SDS011;51029;51.058;13.826;2023-06-22T00:04:15;10.40;;;9.30;;
64619;SDS011;51029;51.058;13.826;2023-06-22T00:06:41;11.40;;;10.20;;
64619;SDS011;51029;51.058;13.826;2023-06-22T00:09:06;10.83;;;9.27;;
64619;SDS011;51029;51.058;13.826;2023-06-22T00:11:32;10.87;;;9.73;;
64619;SDS011;51029;51.058;13.826;2023-06-22T00:13:58;10.80;;;9.80;;
64619;SDS011;51029;51.058;13.826;2023-06-22T00:16:25;10.50;;;9.40;;
64619;SDS011;51029;51.058;13.826;2023-06-22T00:18:50;10.97;;;9.50;;
64619;SDS011;51029;51.058;13.826;2023-06-22T00:21:16;11.83;;;10.17;;
64619;SDS011;51029;51.058;13.826;2023-06-22T00:23:41;10.57;;;9.57;;
64619;SDS011;51029;51.058;13.826;2023-06-22T00:26:08;10.73;;;9.63;;
64619;SDS011;51029;51.058;13.826;2023-06-22T00:28:33;9.90;;;9.00;;
64619;SDS011;51029;51.058;13.826;2023-06-22T00:30:59;10.80;;;9.70;;
64619;SDS011;51029;51.058;13.826;2023-06-22T00:33:25;9.93;;;9.03;;
64619;SDS011;51029;51.058;13.826;2023-06-22T00:35:51;10.17;;;9.17;;
64619;SDS011;51029;51.058;13.826;2023-06-22T00:38:18;10.07;;;9.17;;
64619;SDS011;51029;51.058;13.826;2023-06-22T00:40:44;9.80;;;8.80;;
64619;SDS011;51029;51.058;13.826;2023-06-22T00:43:09;9.97;;;9.07;;
64619;SDS011;51029;51.058;13.826;2023-06-22T00:45:35;10.07;;;9.10;;
64619;SDS011;51029;51.058;13.826;2023-06-22T00:48:01;10.17;;;9.13;;
64619;SDS011;51029;51.058;13.826;2023-06-22T00:50:29;12.40;;;9.80;;
64619;SDS011;51029;51.058;13.826;2023-06-22T00:52:59;9.97;;;9.07;;
64619;SDS011;51029;51.058;13.826;2023-06-22T00:55:32;10.27;;;9.23;;
64619;SDS011;51029;51.058;13.826;2023-06-22T00:58:02;10.87;;;9.77;;
64619;SDS011;51029;51.058;13.826;2023-06-22T01:00:33;11.10;;;10.00;;
64619;SDS011;51029;51.058;13.826;2023-06-22T01:02:58;10.67;;;9.57;;
64619;SDS011;51029;51.058;13.826;2023-06-22T01:05:24;10.73;;;9.73;;
64619;SDS011;51029;51.058;13.826;2023-06-22T01:08:01;11.57;;;9.57;;
64619;SDS011;51029;51.058;13.826;2023-06-22T01:13:07;10.33;;;9.23;;
64619;SDS011;51029;51.058;13.826;2023-06-22T01:15:48;10.27;;;9.20;;
64619;SDS011;51029;51.058;13.826;2023-06-22T01:18:18;11.73;;;9.67;;
64619;SDS011;51029;51.058;13.826;2023-06-22T01:20:46;10.30;;;9.27;;
64619;SDS011;51029;51.058;13.826;2023-06-22T01:25:47;10.80;;;9.40;;
64619;SDS011;51029;51.058;13.826;2023-06-22T01:31:18;11.27;;;9.57;;
64619;SDS011;51029;51.058;13.826;2023-06-22T01:33:50;10.20;;;9.30;;
64619;SDS011;51029;51.058;13.826;2023-06-22T01:36:18;10.73;;;9.57;;
64619;SDS011;51029;51.058;13.826;2023-06-22T01:38:44;10.30;;;9.30;;
64619;SDS011;51029;51.058;13.826;2023-06-22T01:41:12;11.00;;;9.83;;
64619;SDS011;51029;51.058;13.826;2023-06-22T01:43:38;11.07;;;9.97;;
64619;SDS011;51029;51.058;13.826;2023-06-22T01:46:04;10.10;;;9.20;;
64619;SDS011;51029;51.058;13.826;2023-06-22T01:48:30;10.07;;;9.03;;
64619;SDS011;51029;51.058;13.826;2023-06-22T01:50:57;11.20;;;10.07;;
64619;SDS011;51029;51.058;13.826;2023-06-22T01:53:23;10.80;;;9.70;;
64619;SDS011;51029;51.058;13.826;2023-06-22T01:55:49;11.03;;;9.70;;
64619;SDS011;51029;51.058;13.826;2023-06-22T01:58:14;11.13;;;9.83;;
64619;SDS011;51029;51.058;13.826;2023-06-22T02:00:42;11.33;;;10.23;;
64619;SDS011;51029;51.058;13.826;2023-06-22T02:03:18;11.33;;;10.10;;
64619;SDS011;51029;51.058;13.826;2023-06-22T02:05:49;11.17;;;10.07;;
64619;SDS011;51029;51.058;13.826;2023-06-22T02:08:20;17.43;;;15.53;;
64619;SDS011;51029;51.058;13.826;2023-06-22T02:10:53;11.17;;;10.10;;
64619;SDS011;51029;51.058;13.826;2023-06-22T02:13:20;11.10;;;10.00;;
64619;SDS011;51029;51.058;13.826;2023-06-22T02:15:46;12.87;;;10.00;;
64619;SDS011;51029;51.058;13.826;2023-06-22T02:18:12;11.50;;;10.27;;
64619;SDS011;51029;51.058;13.826;2023-06-22T02:20:38;10.67;;;9.67;;
64619;SDS011;51029;51.058;13.826;2023-06-22T02:23:05;11.07;;;9.90;;
64619;SDS011;51029;51.058;13.826;2023-06-22T02:25:32;11.33;;;10.13;;
64619;SDS011;51029;51.058;13.826;2023-06-22T02:27:58;11.27;;;9.73;;
64619;SDS011;51029;51.058;13.826;2023-06-22T02:30:23;10.67;;;9.60;;
64619;SDS011;51029;51.058;13.826;2023-06-22T02:32:49;10.83;;;9.77;;
64619;SDS011;51029;51.058;13.826;2023-06-22T02:35:16;10.37;;;9.27;;
64619;SDS011;51029;51.058;13.826;2023-06-22T02:37:42;11.37;;;9.27;;
64619;SDS011;51029;51.058;13.826;2023-06-22T02:40:08;12.43;;;9.83;;
64619;SDS011;51029;51.058;13.826;2023-06-22T02:42:34;12.07;;;9.80;;
64619;SDS011;51029;51.058;13.826;2023-06-22T02:45:00;10.57;;;9.47;;
64619;SDS011;51029;51.058;13.826;2023-06-22T02:47:26;10.53;;;9.17;;
64619;SDS011;51029;51.058;13.826;2023-06-22T02:49:51;11.23;;;9.93;;
64619;SDS011;51029;51.058;13.826;2023-06-22T02:52:17;10.07;;;9.07;;
64619;SDS011;51029;51.058;13.826;2023-06-22T02:54:43;20.10;;;17.90;;
64619;SDS011;51029;51.058;13.826;2023-06-22T02:57:10;12.47;;;10.87;;
64619;SDS011;51029;51.058;13.826;2023-06-22T02:59:38;11.87;;;10.17;;
64619;SDS011;51029;51.058;13.826;2023-06-22T03:02:05;10.77;;;9.73;;
64619;SDS011;51029;51.058;13.826;2023-06-22T03:04:31;10.90;;;9.80;;
64619;SDS011;51029;51.058;13.826;2023-06-22T03:06:56;11.23;;;10.00;;
64619;SDS011;51029;51.058;13.826;2023-06-22T03:09:26;10.63;;;9.63;;
64619;SDS011;51029;51.058;13.826;2023-06-22T03:11:53;11.07;;;9.97;;
64619;SDS011;51029;51.058;13.826;2023-06-22T03:14:21;11.23;;;9.93;;
64619;SDS011;51029;51.058;13.826;2023-06-22T03:16:47;11.37;;;10.20;;
64619;SDS011;51029;51.058;13.826;2023-06-22T03:19:13;14.17;;;10.00;;
64619;SDS011;51029;51.058;13.826;2023-06-22T03:21:39;11.93;;;9.60;;
64619;SDS011;51029;51.058;13.826;2023-06-22T03:24:05;16.80;;;9.93;;
64619;SDS011;51029;51.058;13.826;2023-06-22T03:26:31;12.30;;;10.43;;
64619;SDS011;51029;51.058;13.826;2023-06-22T03:28:57;11.17;;;9.83;;
64619;SDS011;51029;51.058;13.826;2023-06-22T03:31:23;11.27;;;10.03;;
64619;SDS011;51029;51.058;13.826;2023-06-22T03:33:49;11.57;;;10.30;;
64619;SDS011;51029;51.058;13.826;2023-06-22T03:36:15;13.90;;;10.77;;
64619;SDS011;51029;51.058;13.826;2023-06-22T03:38:47;11.27;;;10.00;;
64619;SDS011;51029;51.058;13.826;2023-06-22T03:41:14;12.20;;;9.80;;
64619;SDS011;51029;51.058;13.826;2023-06-22T03:43:40;11.20;;;9.93;;
64619;SDS011;51029;51.058;13.826;2023-06-22T03:46:05;14.73;;;10.23;;
64619;SDS011;51029;51.058;13.826;2023-06-22T03:48:31;11.77;;;9.23;;
64619;SDS011;51029;51.058;13.826;2023-06-22T03:50:56;10.53;;;9.33;;
64619;SDS011;51029;51.058;13.826;2023-06-22T03:53:23;11.93;;;9.50;;
64619;SDS011;51029;51.058;13.826;2023-06-22T03:55:49;11.50;;;9.73;;
64619;SDS011;51029;51.058;13.826;2023-06-22T03:58:16;11.50;;;10.20;;
64619;SDS011;51029;51.058;13.826;2023-06-22T04:00:44;13.30;;;9.97;;
64619;SDS011;51029;51.058;13.826;2023-06-22T04:03:16;10.87;;;9.70;;
64619;SDS011;51029;51.058;13.826;2023-06-22T04:05:45;11.50;;;9.53;;
64619;SDS011;51029;51.058;13.826;2023-06-22T04:08:12;12.50;;;10.20;;
64619;SDS011;51029;51.058;13.826;2023-06-22T04:10:38;11.97;;;10.07;;
64619;SDS011;51029;51.058;13.826;2023-06-22T04:13:04;11.30;;;10.13;;
64619;SDS011;51029;51.058;13.826;2023-06-22T04:15:29;11.37;;;9.73;;
64619;SDS011;51029;51.058;13.826;2023-06-22T04:17:55;10.53;;;9.50;;
64619;SDS011;51029;51.058;13.826;2023-06-22T04:20:22;11.20;;;9.67;;
64619;SDS011;51029;51.058;13.826;2023-06-22T04:22:47;10.77;;;9.57;;
64619;SDS011;51029;51.058;13.826;2023-06-22T04:25:13;13.63;;;9.67;;
64619;SDS011;51029;51.058;13.826;2023-06-22T04:27:39;11.17;;;9.47;;
64619;SDS011;51029;51.058;13.826;2023-06-22T04:30:07;13.43;;;10.07;;
64619;SDS011;51029;51.058;13.826;2023-06-22T04:32:34;14.17;;;9.97;;
64619;SDS011;51029;51.058;13.826;2023-06-22T04:35:03;11.00;;;9.60;;
64619;SDS011;51029;51.058;13.826;2023-06-22T04:37:31;12.87;;;10.27;;
64619;SDS011;51029;51.058;13.826;2023-06-22T04:39:57;10.47;;;9.33;;
64619;SDS011;51029;51.058;13.826;2023-06-22T04:42:24;13.77;;;9.73;;
64619;SDS011;51029;51.058;13.826;2023-06-22T04:44:53;10.30;;;9.23;;
64619;SDS011;51029;51.058;13.826;2023-06-22T04:47:19;13.07;;;9.90;;
64619;SDS011;51029;51.058;13.826;2023-06-22T04:49:45;12.53;;;9.40;;
64619;SDS011;51029;51.058;13.826;2023-06-22T04:52:11;13.17;;;10.00;;
64619;SDS011;51029;51.058;13.826;2023-06-22T04:54:37;11.07;;;9.47;;
64619;SDS011;51029;51.058;13.826;2023-06-22T04:57:06;13.97;;;9.97;;
64619;SDS011;51029;51.058;13.826;2023-06-22T04:59:35;10.87;;;9.77;;
64619;SDS011;51029;51.058;13.826;2023-06-22T05:02:04;10.40;;;9.30;;
64619;SDS011;51029;51.058;13.826;2023-06-22T05:04:30;11.50;;;10.30;;
64619;SDS011;51029;51.058;13.826;2023-06-22T05:06:57;11.67;;;10.50;;
64619;SDS011;51029;51.058;13.826;2023-06-22T05:09:23;12.17;;;10.97;;
64619;SDS011;51029;51.058;13.826;2023-06-22T05:11:50;11.60;;;10.40;;
64619;SDS011;51029;51.058;13.826;2023-06-22T05:14:16;12.27;;;10.23;;
64619;SDS011;51029;51.058;13.826;2023-06-22T05:16:42;12.27;;;11.07;;
64619;SDS011;51029;51.058;13.826;2023-06-22T05:19:08;12.07;;;10.97;;
64619;SDS011;51029;51.058;13.826;2023-06-22T05:21:34;14.93;;;11.53;;
64619;SDS011;51029;51.058;13.826;2023-06-22T05:24:00;12.53;;;11.27;;
64619;SDS011;51029;51.058;13.826;2023-06-22T05:26:27;12.13;;;10.97;;
64619;SDS011;51029;51.058;13.826;2023-06-22T05:28:54;13.27;;;11.87;;
64619;SDS011;51029;51.058;13.826;2023-06-22T05:31:20;12.30;;;11.00;;
64619;SDS011;51029;51.058;13.826;2023-06-22T05:33:46;12.67;;;11.47;;
64619;SDS011;51029;51.058;13.826;2023-06-22T05:36:12;12.53;;;11.23;;
64619;SDS011;51029;51.058;13.826;2023-06-22T05:38:38;12.17;;;10.90;;
64619;SDS011;51029;51.058;13.826;2023-06-22T05:41:04;12.90;;;11.60;;
64619;SDS011;51029;51.058;13.826;2023-06-22T05:43:30;12.83;;;11.50;;
64619;SDS011;51029;51.058;13.826;2023-06-22T05:45:56;11.87;;;10.60;;
64619;SDS011;51029;51.058;13.826;2023-06-22T05:48:21;11.60;;;10.43;;
64619;SDS011;51029;51.058;13.826;2023-06-22T05:50:47;19.13;;;16.80;;
64619;SDS011;51029;51.058;13.826;2023-06-22T05:53:12;12.03;;;10.80;;
64619;SDS011;51029;51.058;13.826;2023-06-22T05:55:38;12.17;;;10.93;;
64619;SDS011;51029;51.058;13.826;2023-06-22T05:58:04;12.53;;;10.53;;
64619;SDS011;51029;51.058;13.826;2023-06-22T06:00:29;13.20;;;10.07;;
64619;SDS011;51029;51.058;13.826;2023-06-22T06:02:55;10.57;;;9.37;;
64619;SDS011;51029;51.058;13.826;2023-06-22T06:05:21;10.70;;;9.60;;
64619;SDS011;51029;51.058;13.826;2023-06-22T06:07:48;14.37;;;9.57;;
64619;SDS011;51029;51.058;13.826;2023-06-22T06:10:14;11.63;;;9.40;;
64619;SDS011;51029;51.058;13.826;2023-06-22T06:12:40;11.07;;;10.00;;
64619;SDS011;51029;51.058;13.826;2023-06-22T06:15:05;12.87;;;9.77;;
64619;SDS011;51029;51.058;13.826;2023-06-22T06:17:31;11.03;;;9.93;;
64619;SDS011;51029;51.058;13.826;2023-06-22T06:19:58;11.60;;;10.40;;
64619;SDS011;51029;51.058;13.826;2023-06-22T06:22:24;11.43;;;10.23;;
64619;SDS011;51029;51.058;13.826;2023-06-22T06:24:49;11.20;;;10.10;;
64619;SDS011;51029;51.058;13.826;2023-06-22T06:27:15;10.93;;;9.93;;
64619;SDS011;51029;51.058;13.826;2023-06-22T06:29:43;12.77;;;10.03;;
64619;SDS011;51029;51.058;13.826;2023-06-22T06:32:10;11.13;;;10.03;;
64619;SDS011;51029;51.058;13.826;2023-06-22T06:34:36;16.63;;;14.10;;
64619;SDS011;51029;51.058;13.826;2023-06-22T06:37:01;11.40;;;10.40;;
64619;SDS011;51029;51.058;13.826;2023-06-22T06:39:27;11.60;;;10.40;;
64619;SDS011;51029;51.058;13.826;2023-06-22T06:41:52;11.33;;;10.23;;
64619;SDS011;51029;51.058;13.826;2023-06-22T06:44:18;11.40;;;10.30;;
64619;SDS011;51029;51.058;13.826;2023-06-22T06:46:43;11.40;;;10.30;;
64619;SDS011;51029;51.058;13.826;2023-06-22T06:49:09;10.63;;;9.67;;
64619;SDS011;51029;51.058;13.826;2023-06-22T06:51:34;10.87;;;9.67;;
64619;SDS011;51029;51.058;13.826;2023-06-22T06:54:00;12.07;;;10.00;;
64619;SDS011;51029;51.058;13.826;2023-06-22T06:56:26;11.37;;;10.17;;
64619;SDS011;51029;51.058;13.826;2023-06-22T06:58:52;11.57;;;10.50;;
64619;SDS011;51029;51.058;13.826;2023-06-22T07:01:17;11.07;;;10.03;;
64619;SDS011;51029;51.058;13.826;2023-06-22T07:03:44;13.00;;;10.57;;
64619;SDS011;51029;51.058;13.826;2023-06-22T07:06:10;13.43;;;10.80;;
64619;SDS011;51029;51.058;13.826;2023-06-22T07:08:35;11.53;;;10.43;;
64619;SDS011;51029;51.058;13.826;2023-06-22T07:11:01;11.03;;;10.03;;
64619;SDS011;51029;51.058;13.826;2023-06-22T07:13:27;11.27;;;10.13;;
64619;SDS011;51029;51.058;13.826;2023-06-22T07:15:53;11.90;;;10.67;;
64619;SDS011;51029;51.058;13.826;2023-06-22T07:18:18;12.37;;;10.83;;
64619;SDS011;51029;51.058;13.826;2023-06-22T07:20:44;12.30;;;10.63;;
64619;SDS011;51029;51.058;13.826;2023-06-22T07:23:09;17.80;;;16.03;;
64619;SDS011;51029;51.058;13.826;2023-06-22T07:25:35;13.53;;;10.90;;
64619;SDS011;51029;51.058;13.826;2023-06-22T07:28:04;11.83;;;10.57;;
64619;SDS011;51029;51.058;13.826;2023-06-22T07:30:31;12.07;;;10.80;;
64619;SDS011;51029;51.058;13.826;2023-06-22T07:32:58;14.53;;;10.60;;
64619;SDS011;51029;51.058;13.826;2023-06-22T07:35:28;11.37;;;10.27;;
64619;SDS011;51029;51.058;13.826;2023-06-22T07:37:54;11.27;;;10.17;;
64619;SDS011;51029;51.058;13.826;2023-06-22T07:40:19;11.43;;;10.43;;
64619;SDS011;51029;51.058;13.826;2023-06-22T07:42:45;11.93;;;10.80;;
64619;SDS011;51029;51.058;13.826;2023-06-22T07:45:13;11.53;;;10.40;;
64619;SDS011;51029;51.058;13.826;2023-06-22T07:47:38;13.07;;;10.53;;
64619;SDS011;51029;51.058;13.826;2023-06-22T07:50:04;10.43;;;9.43;;
64619;SDS011;51029;51.058;13.826;2023-06-22T07:52:30;13.73;;;10.10;;
64619;SDS011;51029;51.058;13.826;2023-06-22T07:54:56;10.90;;;9.90;;
64619;SDS011;51029;51.058;13.826;2023-06-22T07:57:22;10.97;;;9.97;;
64619;SDS011;51029;51.058;13.826;2023-06-22T07:59:47;11.27;;;10.23;;
64619;SDS011;51029;51.058;13.826;2023-06-22T08:02:13;10.97;;;9.93;;
64619;SDS011;51029;51.058;13.826;2023-06-22T08:04:38;9.70;;;8.97;;
64619;SDS011;51029;51.058;13.826;2023-06-22T08:07:04;9.57;;;8.63;;
64619;SDS011;51029;51.058;13.826;2023-06-22T08:09:31;9.23;;;8.20;;
64619;SDS011;51029;51.058;13.826;2023-06-22T08:11:57;8.57;;;7.77;;
64619;SDS011;51029;51.058;13.826;2023-06-22T08:14:25;8.47;;;7.67;;
64619;SDS011;51029;51.058;13.826;2023-06-22T08:16:51;8.70;;;7.82;;
64619;SDS011;51029;51.058;13.826;2023-06-22T08:19:16;8.50;;;7.70;;
64619;SDS011;51029;51.058;13.826;2023-06-22T08:21:42;8.13;;;7.35;;
64619;SDS011;51029;51.058;13.826;2023-06-22T08:24:08;8.77;;;7.97;;
64619;SDS011;51029;51.058;13.826;2023-06-22T08:26:34;8.23;;;7.53;;
64619;SDS011;51029;51.058;13.826;2023-06-22T08:29:02;8.32;;;7.57;;
64619;SDS011;51029;51.058;13.826;2023-06-22T08:31:28;8.43;;;7.63;;
64619;SDS011;51029;51.058;13.826;2023-06-22T08:33:54;8.55;;;7.75;;
64619;SDS011;51029;51.058;13.826;2023-06-22T08:36:19;8.27;;;7.32;;
64619;SDS011;51029;51.058;13.826;2023-06-22T08:38:45;9.68;;;8.68;;
64619;SDS011;51029;51.058;13.826;2023-06-22T08:41:15;7.95;;;7.15;;
64619;SDS011;51029;51.058;13.826;2023-06-22T08:43:40;8.15;;;7.15;;
64619;SDS011;51029;51.058;13.826;2023-06-22T08:46:07;7.93;;;7.13;;
64619;SDS011;51029;51.058;13.826;2023-06-22T08:48:32;8.07;;;7.25;;
64619;SDS011;51029;51.058;13.826;2023-06-22T08:50:57;8.07;;;7.38;;
64619;SDS011;51029;51.058;13.826;2023-06-22T08:53:23;8.13;;;6.90;;
64619;SDS011;51029;51.058;13.826;2023-06-22T08:55:49;9.98;;;7.18;;
64619;SDS011;51029;51.058;13.826;2023-06-22T08:58:15;7.45;;;6.75;;
64619;SDS011;51029;51.058;13.826;2023-06-22T09:00:41;7.05;;;6.45;;
64619;SDS011;51029;51.058;13.826;2023-06-22T09:03:06;8.23;;;7.43;;
64619;SDS011;51029;51.058;13.826;2023-06-22T09:05:33;7.05;;;6.35;;
64619;SDS011;51029;51.058;13.826;2023-06-22T09:07:58;7.40;;;6.18;;
64619;SDS011;51029;51.058;13.826;2023-06-22T09:10:24;8.02;;;6.72;;
64619;SDS011;51029;51.058;13.826;2023-06-22T09:12:50;7.95;;;7.28;;
64619;SDS011;51029;51.058;13.826;2023-06-22T09:15:16;9.07;;;7.40;;
64619;SDS011;51029;51.058;13.826;2023-06-22T09:17:41;8.50;;;7.63;;
64619;SDS011;51029;51.058;13.826;2023-06-22T09:20:07;8.15;;;7.35;;
64619;SDS011;51029;51.058;13.826;2023-06-22T09:22:35;8.07;;;7.25;;
64619;SDS011;51029;51.058;13.826;2023-06-22T09:25:01;8.20;;;7.40;;
64619;SDS011;51029;51.058;13.826;2023-06-22T09:27:28;7.68;;;6.97;;
64619;SDS011;51029;51.058;13.826;2023-06-22T09:29:53;16.42;;;14.75;;
64619;SDS011;51029;51.058;13.826;2023-06-22T09:32:19;9.25;;;7.05;;
64619;SDS011;51029;51.058;13.826;2023-06-22T09:34:44;12.93;;;8.15;;
64619;SDS011;51029;51.058;13.826;2023-06-22T09:37:10;7.82;;;7.03;;
64619;SDS011;51029;51.058;13.826;2023-06-22T09:39:35;7.43;;;6.82;;
64619;SDS011;51029;51.058;13.826;2023-06-22T09:42:01;7.65;;;6.85;;
64619;SDS011;51029;51.058;13.826;2023-06-22T09:44:27;7.90;;;6.80;;
64619;SDS011;51029;51.058;13.826;2023-06-22T09:46:53;8.35;;;7.50;;
64619;SDS011;51029;51.058;13.826;2023-06-22T09:49:18;7.13;;;6.47;;
64619;SDS011;51029;51.058;13.826;2023-06-22T09:51:44;7.57;;;6.88;;
64619;SDS011;51029;51.058;13.826;2023-06-22T09:54:09;8.75;;;7.90;;
64619;SDS011;51029;51.058;13.826;2023-06-22T09:56:35;7.80;;;7.05;;
64619;SDS011;51029;51.058;13.826;2023-06-22T09:59:02;8.30;;;7.30;;
64619;SDS011;51029;51.058;13.826;2023-06-22T10:01:28;8.25;;;7.32;;
64619;SDS011;51029;51.058;13.826;2023-06-22T10:03:53;7.85;;;7.15;;
64619;SDS011;51029;51.058;13.826;2023-06-22T10:06:20;7.65;;;6.97;;
64619;SDS011;51029;51.058;13.826;2023-06-22T10:08:46;7.35;;;6.65;;
64619;SDS011;51029;51.058;13.826;2023-06-22T10:11:13;8.40;;;7.43;;
64619;SDS011;51029;51.058;13.826;2023-06-22T10:13:38;8.63;;;7.65;;
64619;SDS011;51029;51.058;13.826;2023-06-22T10:16:04;8.25;;;7.45;;
64619;SDS011;51029;51.058;13.826;2023-06-22T10:18:29;8.48;;;7.78;;
64619;SDS011;51029;51.058;13.826;2023-06-22T10:20:55;8.48;;;7.13;;
64619;SDS011;51029;51.058;13.826;2023-06-22T10:23:21;7.25;;;6.63;;
64619;SDS011;51029;51.058;13.826;2023-06-22T10:25:47;7.47;;;6.78;;
64619;SDS011;51029;51.058;13.826;2023-06-22T10:28:12;7.45;;;6.05;;
64619;SDS011;51029;51.058;13.826;2023-06-22T10:30:39;7.10;;;6.50;;
64619;SDS011;51029;51.058;13.826;2023-06-22T10:33:06;6.40;;;5.90;;
64619;SDS011;51029;51.058;13.826;2023-06-22T10:35:32;8.00;;;6.38;;
64619;SDS011;51029;51.058;13.826;2023-06-22T10:37:58;7.85;;;5.93;;
64619;SDS011;51029;51.058;13.826;2023-06-22T10:40:24;7.25;;;6.55;;
64619;SDS011;51029;51.058;13.826;2023-06-22T10:42:49;7.78;;;6.38;;
64619;SDS011;51029;51.058;13.826;2023-06-22T10:45:15;7.20;;;6.50;;
64619;SDS011;51029;51.058;13.826;2023-06-22T10:47:40;6.47;;;5.88;;
64619;SDS011;51029;51.058;13.826;2023-06-22T10:50:07;7.05;;;6.35;;
64619;SDS011;51029;51.058;13.826;2023-06-22T10:52:33;8.80;;;6.25;;
64619;SDS011;51029;51.058;13.826;2023-06-22T10:54:58;6.72;;;6.13;;
64619;SDS011;51029;51.058;13.826;2023-06-22T10:57:24;6.72;;;6.10;;
64619;SDS011;51029;51.058;13.826;2023-06-22T10:59:49;6.03;;;5.53;;
64619;SDS011;51029;51.058;13.826;2023-06-22T11:02:15;6.40;;;5.90;;
64619;SDS011;51029;51.058;13.826;2023-06-22T11:04:40;6.68;;;6.07;;
64619;SDS011;51029;51.058;13.826;2023-06-22T11:07:06;7.45;;;6.80;;
64619;SDS011;51029;51.058;13.826;2023-06-22T11:09:31;9.63;;;6.53;;
64619;SDS011;51029;51.058;13.826;2023-06-22T11:11:57;7.30;;;6.20;;
64619;SDS011;51029;51.058;13.826;2023-06-22T11:14:24;7.80;;;6.10;;
64619;SDS011;51029;51.058;13.826;2023-06-22T11:16:50;8.00;;;6.43;;
64619;SDS011;51029;51.058;13.826;2023-06-22T11:19:16;6.88;;;6.28;;
64619;SDS011;51029;51.058;13.826;2023-06-22T11:21:41;7.05;;;6.32;;
64619;SDS011;51029;51.058;13.826;2023-06-22T11:24:07;6.45;;;5.85;;
64619;SDS011;51029;51.058;13.826;2023-06-22T11:26:32;6.70;;;5.93;;
64619;SDS011;51029;51.058;13.826;2023-06-22T11:28:58;6.50;;;5.93;;
64619;SDS011;51029;51.058;13.826;2023-06-22T11:31:24;5.82;;;5.43;;
64619;SDS011;51029;51.058;13.826;2023-06-22T11:33:50;5.93;;;5.43;;
64619;SDS011;51029;51.058;13.826;2023-06-22T11:36:16;6.05;;;5.55;;
64619;SDS011;51029;51.058;13.826;2023-06-22T11:38:42;6.00;;;5.40;;
64619;SDS011;51029;51.058;13.826;2023-06-22T11:41:08;5.68;;;5.18;;
64619;SDS011;51029;51.058;13.826;2023-06-22T11:43:34;5.55;;;5.05;;
64619;SDS011;51029;51.058;13.826;2023-06-22T11:46:01;5.28;;;4.78;;
64619;SDS011;51029;51.058;13.826;2023-06-22T11:48:28;5.50;;;5.10;;
64619;SDS011;51029;51.058;13.826;2023-06-22T11:50:53;5.43;;;4.93;;
64619;SDS011;51029;51.058;13.826;2023-06-22T11:53:20;5.55;;;4.85;;
64619;SDS011;51029;51.058;13.826;2023-06-22T11:55:46;6.07;;;5.05;;
64619;SDS011;51029;51.058;13.826;2023-06-22T11:58:12;5.82;;;5.13;;
64619;SDS011;51029;51.058;13.826;2023-06-22T12:00:37;6.65;;;6.05;;
64619;SDS011;51029;51.058;13.826;2023-06-22T12:03:03;5.80;;;5.30;;
64619;SDS011;51029;51.058;13.826;2023-06-22T12:05:29;7.20;;;5.63;;
64619;SDS011;51029;51.058;13.826;2023-06-22T12:07:54;6.60;;;6.00;;
64619;SDS011;51029;51.058;13.826;2023-06-22T12:10:21;6.20;;;5.70;;
64619;SDS011;51029;51.058;13.826;2023-06-22T12:12:47;6.18;;;5.68;;
64619;SDS011;51029;51.058;13.826;2023-06-22T12:15:13;6.70;;;5.97;;
64619;SDS011;51029;51.058;13.826;2023-06-22T12:17:38;6.55;;;6.05;;
64619;SDS011;51029;51.058;13.826;2023-06-22T12:20:05;6.20;;;5.70;;
64619;SDS011;51029;51.058;13.826;2023-06-22T12:22:32;6.43;;;5.82;;
64619;SDS011;51029;51.058;13.826;2023-06-22T12:24:57;7.72;;;5.90;;
64619;SDS011;51029;51.058;13.826;2023-06-22T12:27:23;6.10;;;5.32;;
64619;SDS011;51029;51.058;13.826;2023-06-22T12:29:50;5.47;;;4.95;;
64619;SDS011;51029;51.058;13.826;2023-06-22T12:32:15;5.30;;;4.63;;
64619;SDS011;51029;51.058;13.826;2023-06-22T12:34:42;5.07;;;4.57;;
64619;SDS011;51029;51.058;13.826;2023-06-22T12:37:08;5.07;;;4.45;;
64619;SDS011;51029;51.058;13.826;2023-06-22T12:39:33;5.82;;;4.63;;
64619;SDS011;51029;51.058;13.826;2023-06-22T12:41:59;4.82;;;4.32;;
64619;SDS011;51029;51.058;13.826;2023-06-22T12:44:25;4.93;;;4.35;;
64619;SDS011;51029;51.058;13.826;2023-06-22T12:46:51;4.82;;;4.43;;
64619;SDS011;51029;51.058;13.826;2023-06-22T12:49:16;5.10;;;4.60;;
64619;SDS011;51029;51.058;13.826;2023-06-22T12:51:43;5.10;;;4.55;;
64619;SDS011;51029;51.058;13.826;2023-06-22T12:54:09;4.80;;;4.40;;
64619;SDS011;51029;51.058;13.826;2023-06-22T12:56:35;6.55;;;5.35;;
64619;SDS011;51029;51.058;13.826;2023-06-22T12:59:02;8.35;;;7.55;;
64619;SDS011;51029;51.058;13.826;2023-06-22T13:01:28;11.52;;;10.40;;
64619;SDS011;51029;51.058;13.826;2023-06-22T13:03:55;6.38;;;5.78;;
64619;SDS011;51029;51.058;13.826;2023-06-22T13:06:21;6.35;;;5.82;;
64619;SDS011;51029;51.058;13.826;2023-06-22T13:08:46;6.75;;;6.05;;
64619;SDS011;51029;51.058;13.826;2023-06-22T13:11:12;6.25;;;5.65;;
64619;SDS011;51029;51.058;13.826;2023-06-22T13:13:38;6.00;;;5.40;;
64619;SDS011;51029;51.058;13.826;2023-06-22T13:16:04;6.45;;;5.32;;
64619;SDS011;51029;51.058;13.826;2023-06-22T13:18:29;5.88;;;5.28;;
64619;SDS011;51029;51.058;13.826;2023-06-22T13:20:55;6.00;;;5.15;;
64619;SDS011;51029;51.058;13.826;2023-06-22T13:23:21;6.15;;;4.85;;
64619;SDS011;51029;51.058;13.826;2023-06-22T13:25:46;5.60;;;5.13;;
64619;SDS011;51029;51.058;13.826;2023-06-22T13:28:12;5.80;;;5.30;;
64619;SDS011;51029;51.058;13.826;2023-06-22T13:30:39;6.45;;;5.85;;
64619;SDS011;51029;51.058;13.826;2023-06-22T13:33:05;6.97;;;6.25;;
64619;SDS011;51029;51.058;13.826;2023-06-22T13:35:31;7.07;;;6.40;;
64619;SDS011;51029;51.058;13.826;2023-06-22T13:37:56;7.20;;;6.30;;
64619;SDS011;51029;51.058;13.826;2023-06-22T13:40:22;6.30;;;5.75;;
64619;SDS011;51029;51.058;13.826;2023-06-22T13:42:47;8.18;;;7.38;;
64619;SDS011;51029;51.058;13.826;2023-06-22T13:45:13;6.50;;;5.90;;
64619;SDS011;51029;51.058;13.826;2023-06-22T13:47:39;6.20;;;5.70;;
64619;SDS011;51029;51.058;13.826;2023-06-22T13:50:04;5.85;;;5.35;;
64619;SDS011;51029;51.058;13.826;2023-06-22T13:52:30;6.78;;;5.95;;
64619;SDS011;51029;51.058;13.826;2023-06-22T13:54:56;5.60;;;5.10;;
64619;SDS011;51029;51.058;13.826;2023-06-22T13:57:21;5.88;;;5.35;;
64619;SDS011;51029;51.058;13.826;2023-06-22T13:59:47;7.75;;;5.30;;
64619;SDS011;51029;51.058;13.826;2023-06-22T14:02:12;5.80;;;5.20;;
64619;SDS011;51029;51.058;13.826;2023-06-22T14:04:38;5.53;;;5.07;;
64619;SDS011;51029;51.058;13.826;2023-06-22T14:07:04;6.70;;;6.03;;
64619;SDS011;51029;51.058;13.826;2023-06-22T14:09:29;6.50;;;5.90;;
64619;SDS011;51029;51.058;13.826;2023-06-22T14:11:55;6.85;;;5.70;;
64619;SDS011;51029;51.058;13.826;2023-06-22T14:14:21;7.25;;;5.80;;
64619;SDS011;51029;51.058;13.826;2023-06-22T14:16:47;6.43;;;5.68;;
64619;SDS011;51029;51.058;13.826;2023-06-22T14:19:14;6.72;;;5.75;;
64619;SDS011;51029;51.058;13.826;2023-06-22T14:21:41;7.90;;;7.10;;
64619;SDS011;51029;51.058;13.826;2023-06-22T14:24:07;9.25;;;7.00;;
64619;SDS011;51029;51.058;13.826;2023-06-22T14:26:32;6.72;;;6.13;;